Saint Augustine, FL (32080)

7:48 PM EST on December 08, 2016 (GMT -0500)
Julieta Ct | | Change Station

Elev 43 ft 29.80 °N, 81.31 °W | Updated 28 seconds ago

Partly Cloudy
Partly Cloudy
61.0 °F
Feels Like 61.0 °F
N
1.8
Wind Variable Wind from North
Gusts 2.5 mph

Today
High -- | Low -- °F
--% Chance of Precip.
Yesterday
High -- | Low -- °F
Precip. -- in
Pressure 30.21 in
Visibility 10.0 miles
Clouds Clear
Dew Point 42 °F
Humidity 49%
Rainfall 0.00 in
Snow Depth Not available.
7:08 AM 5:25 PM
Waxing Gibbous, 68% visible
METAR KSGJ 082358Z 32007KT 10SM CLR 17/11 A3021 RMK AO2 SLP228 T01670106 10206 20167 51031
Pressure 30.21 in
Visibility 10.0 miles
Clouds Clear
Dew Point 42 °F
Humidity 49%
Rainfall 0.00 in
Snow Depth Not available.
7:08 AM 5:25 PM
Waxing Gibbous, 68% visible
METAR KSGJ 082358Z 32007KT 10SM CLR 17/11 A3021 RMK AO2 SLP228 T01670106 10206 20167 51031

10-Day Weather Forecast

Almanac

Astronomy

Dec. 08, 2016 Rise Set
Actual Time
Civil Twilight
Nautical Twilight
Astronomical Twilight
Moon
Length of Visible Light
Length of Day
Tomorrow will be .
, % of the Moon is Illuminated

Today's Extremes

State Highs State Lows

Community

WunderPhotos

Upload Photos

1,956,277 photos uploaded!

WunderBlog® & News

Nearby

Air Quality

  Air Quality AQ Index Pollutant
Not available.

Snow Depth

Station Depth Elevation

Earthquake Activity

City Distance Mag. Time & Date
Minimum magnitude displayed is 2.5.

Coastal Water Temperatures

Place Temperature

Stations

Nearby Weather Stations

Station Location Temp. Windchill Dew Point Humidity Wind Precip. Elev Updated Type
                   

Watches & Warnings

There are currently no watches in effect.